EST,Max TemperatureF,Mean TemperatureF,Min TemperatureF,Max Dew PointF,MeanDew PointF,Min DewpointF,Max Humidity, Mean Humidity, Min Humidity, Max Sea Level PressureIn, Mean Sea Level PressureIn, Min Sea Level PressureIn, Max VisibilityMiles, Mean VisibilityMiles, Min VisibilityMiles, Max Wind SpeedMPH, Mean Wind SpeedMPH, Max Gust SpeedMPH,PrecipitationIn, CloudCover, Events, WindDirDegrees
2013-2-1,14,8,2,9,3,-1,91,76,61,30.10,29.71,29.44,10,5,1,18,7,25,T,7,Snow,260
2013-2-2,14,7,0,9,4,-3,95,86,76,30.14,29.98,29.87,10,4,0,16,6,20,T,8,Fog-Snow,222
2013-2-3,21,5,-11,10,3,-14,90,70,49,29.98,29.80,29.63,10,7,1,9,1,13,T,5,Snow,243
2013-2-4,15,1,-13,10,1,-16,92,64,36,29.91,29.73,29.62,10,7,0,20,6,31,0.01,4,Fog-Snow,250
2013-2-5,18,-1,-20,2,-9,-25,92,63,33,30.00,29.92,29.74,10,10,10,12,3,16,0.00,3,,230
2013-2-6,20,5,-10,18,7,-13,91,66,41,30.36,29.98,29.73,10,5,0,15,5,23,0.01,7,Fog-Snow,259
2013-2-7,17,1,-15,-1,-7,-19,86,66,46,30.52,30.44,30.32,10,10,10,13,4,14,0.00,6,,54
2013-2-8,19,13,6,16,11,0,92,84,76,30.32,29.99,29.82,7,1,0,17,10,22,0.26,8,Fog-Snow,52
2013-2-9,16,-2,-20,9,-1,-24,88,65,42,30.40,30.11,29.86,10,7,2,15,5,18,T,4,Snow,15
2013-2-10,30,2,-26,13,-8,-30,100,65,29,30.49,30.38,30.19,10,10,10,8,0,9,0.00,1,,45
2013-2-11,37,21,4,34,26,3,100,85,69,30.13,29.72,29.54,10,7,1,23,8,35,0.10,8,Rain-Snow,232
2013-2-12,30,28,25,27,25,21,92,87,81,29.83,29.63,29.52,10,4,0,18,11,28,0.02,8,Fog-Snow,246
2013-2-13,29,26,23,23,21,20,96,83,69,29.82,29.76,29.70,10,6,2,10,4,16,T,8,Snow,228
2013-2-14,31,25,19,21,19,17,100,79,58,29.90,29.85,29.72,10,9,3,8,2,,T,6,Snow,229
2013-2-15,33,28,22,30,25,13,96,80,63,29.95,29.79,29.71,10,5,0,26,10,35,0.05,8,Fog-Snow,229
2013-2-16,22,11,-1,14,6,-4,92,66,39,29.99,29.95,29.87,10,8,2,10,3,14,T,3,Snow,289
2013-2-17,9,1,-7,-2,-5,-8,87,72,57,29.92,29.81,29.68,10,8,2,16,6,29,T,3,,289
2013-2-18,18,7,-5,-4,-7,-11,87,59,30,30.19,30.06,29.83,10,7,2,13,5,25,T,4,,268
2013-2-19,43,22,0,29,18,-5,92,67,42,30.09,29.72,29.54,10,6,1,25,6,32,0.10,7,Snow,219
2013-2-20,23,18,10,18,12,7,88,75,62,29.79,29.65,29.56,10,4,1,17,11,27,T,8,Snow,250
2013-2-21,13,7,0,11,2,-6,92,81,69,30.42,30.00,29.71,10,4,1,14,7,24,T,8,Snow,249
2013-2-22,30,13,-4,20,12,-6,100,84,68,30.43,30.30,30.13,10,10,4,13,4,16,T,5,Snow,73
2013-2-23,34,31,27,31,27,20,100,82,63,30.12,29.94,29.83,10,6,1,12,2,15,0.05,8,Snow,187
2013-2-24,31,29,26,30,26,23,100,89,78,29.95,29.80,29.73,10,5,2,7,2,10,0.02,8,Snow,251
2013-2-25,33,28,22,28,25,21,100,89,78,30.23,30.09,29.92,10,6,0,8,2,10,0.01,8,Fog-Snow,234
2013-2-26,36,24,12,25,19,10,100,80,59,30.29,30.19,30.00,10,5,0,13,3,18,T,5,Fog,119
2013-2-27,37,34,30,30,28,21,92,77,61,30.00,29.68,29.55,10,8,2,20,10,26,0.02,8,Snow,77
2013-2-28,37,33,28,28,27,24,100,82,64,29.62,29.54,29.45,10,8,2,13,4,16,0.01,8,Snow,104